This is the latest recevied weather packets stored in our database for station/object KB9GXK. If no packets are shown the sender has not sent any weather packets the latest 1 day(s).
| Time | Temp. | Humidity | Pressure | Rain* | Wind** | Luminosity | Snow |
|---|---|---|---|---|---|---|---|
| 1778074906 | 10.56° C | 44% | 1014 hPa | 0 mm | - | 336 W/m² | - |
| 1778073694 | 10° C | 44% | 1014.1 hPa | 0 mm | - | 93 W/m² | - |
| 1778073392 | 10° C | 44% | 1014.1 hPa | 0 mm | - | 202 W/m² | - |
| 1778073088 | 8.89° C | 45% | 1013.9 hPa | 0 mm | - | 173 W/m² | - |
| 1778072785 | 9.44° C | 46% | 1014.2 hPa | 0 mm | - | 177 W/m² | - |
| 1778071878 | 8.89° C | 52% | 1013.8 hPa | 0 mm | - | 106 W/m² | - |
| 1778069761 | 7.22° C | 61% | 1013.5 hPa | 0 mm | - | 98 W/m² | - |
| 1778069457 | 7.22° C | 63% | 1013.4 hPa | 0 mm | - | 108 W/m² | - |
| 1778069155 | 6.67° C | 64% | 1013.4 hPa | 0 mm | - | 96 W/m² | - |
| 1778068550 | 6.11° C | 67% | 1013.4 hPa | 0 mm | - | 72 W/m² | - |
| 1778068248 | 5.56° C | 69% | 1013.3 hPa | 0 mm | - | 68 W/m² | - |
| 1778067038 | 3.89° C | 77% | 1013.3 hPa | 0 mm | - | 38 W/m² | - |
| 1778066432 | 2.78° C | 81% | 1013.2 hPa | 0 mm | - | 26 W/m² | - |
| 1778066130 | 2.22° C | 82% | 1013.3 hPa | 0 mm | - | 21 W/m² | - |
| 1778065827 | 1.67° C | 83% | 1013.2 hPa | 0 mm | - | 17 W/m² | - |
| 1778064011 | 1.67° C | 82% | 1012.4 hPa | 0 mm | - | 2 W/m² | - |
| 1778063103 | 2.22° C | 82% | 1012.4 hPa | 0 mm | - | 0 W/m² | - |
| 1778060983 | 2.22° C | 81% | 1012.4 hPa | 0 mm | - | 0 W/m² | - |
| 1778060682 | 2.22° C | 81% | 1012.4 hPa | 0 mm | - | 0 W/m² | - |
| 1778060379 | 2.22° C | 81% | 1012.3 hPa | 0 mm | - | 0 W/m² | - |
| 1778059775 | 2.22° C | 81% | 1012.4 hPa | 0 mm | - | 0 W/m² | - |
| 1778058867 | 2.78° C | 79% | 1012.6 hPa | 0 mm | - | 0 W/m² | - |
| 1778058564 | 2.78° C | 79% | 1012.7 hPa | 0 mm | - | 0 W/m² | - |
| 1778057958 | 2.78° C | 79% | 1012.6 hPa | 0 mm | - | 0 W/m² | - |
| 1778057655 | 2.78° C | 78% | 1012.4 hPa | 0 mm | - | 0 W/m² | - |
* Rain latest hour (hover to see other rain measurements)
** Current wind speed in m/s (hover to see current wind gust speed)